SUCCESS DAM (SCC)

Elevation: 692' · TULE R basin · Operator: US Army Corps of Engineers

Provisional data, subject to change.
Query executed Saturday at 15:02:20   clock

Select a sensor type for a plot of data.
Note: Reservoir Flows are daily averages.

Earlier

Date RES ELE    STORAGE    RES CHG    TOC STO    ABV TOC    OUTFLOW    INFLOW    FNF    PPT INC    TEMP MN    TEMP MX    WINDLEN    EVP PAN   
 FEET   AF   AF   AF   AF   CFS   CFS   CFS   INCHES   DEG F   DEG F   MILES   INCHES  
03/20/2014 591.47 8392 49 25500 -17108 4 31 31 0.00 50 81 -- 0.18
03/21/2014 591.59 8447 55 25800 -- 2 32 32 0.00 50 80 -- 0.19
03/22/2014 591.71 8501 54 26200 -17699 1 31 31 0.00 46 77 -- 0.18
03/23/2014 591.83 8556 55 26900 -18344 3 33 33 0.00 50 79 -- 0.20
03/24/2014 591.95 8611 55 27200 -18589 2 32 32 0.00 49 83 -- 0.20
03/25/2014 592.06 8662 51 27500 -18838 2 30 30 0.00 54 79 -- 0.20
03/26/2014 592.22 8736 74 27600 -18864 2 41 41 0.09 51 61 -- 0.08
03/27/2014 592.44 8838 102 28100 -19262 4 57 57 0.00 49 67 -- 0.10
03/28/2014 592.64 8932 94 29100 -20168 2 52 52 0.02 45 74 -- 0.17
03/29/2014 592.83 9022 90 30700 -21678 1 48 48 0.02 52 80 -- 0.16
03/30/2014 593.17 9185 163 32400 -23215 1 85 85 0.60 48 62 -- 0.12
03/31/2014 593.50 9345 160 34000 -24655 1 83 83 0.23 43 67 -- 0.11
04/01/2014 593.85 9516 171 35600 -26084 0 89 89 0.06 42 63 -- 0.13
04/02/2014 594.22 9700 184 37200 -27500 0 95 95 0.15 43 64 -- 0.14
04/03/2014 594.54 9861 161 38800 -28939 0 84 84 0.00 43 68 -- 0.15
04/04/2014 594.83 10008 147 40400 -30392 0 77 77 0.01 45 69 -- 0.18
04/05/2014 595.10 10147 139 42000 -31853 0 73 73 0.00 46 67 -- 0.17
04/06/2014 595.36 10282 135 43600 -33318 0 71 71 0.05 50 76 -- 0.20
04/07/2014 595.62 10418 136 45200 -34782 0 72 72 0.05 53 87 -- 0.22
04/08/2014 595.95 10592 174 46900 -36308 1 92 92 0.00 r 57 91 -- 0.23
04/09/2014 596.34 10801 209 48500 -37699 1 110 110 0.00 57 90 -- 0.24
04/10/2014 596.69 10991 190 50100 -39109 2 101 101 0.00 53 88 -- 0.22
04/11/2014 596.95 11134 143 51700 -40566 2 78 78 0.00 60 92 -- 0.26
04/12/2014 597.17 11255 121 53300 -42045 1 66 66 0.00 55 81 -- 0.24
04/13/2014 597.39 11378 123 54900 -43522 1 66 66 0.00 52 79 -- 0.21
04/14/2014 597.58 11484 106 56500 -45016 4 61 61 0.00 59 86 -- 0.24
04/15/2014 597.75 11580 96 58100 -46520 4 56 56 0.00 58 87 -- 0.25
04/16/2014 597.90 11665 85 59700 -48035 7 53 53 0.00 52 84 -- 0.24
04/17/2014 598.02 11734 69 61400 -49666 5 43 43 0.00 57 88 -- 0.18
04/18/2014 598.13 11797 63 63000 -51203 6 42 -- 0.00 60 81 -- 0.23
04/19/2014 -- -- -- -- -- -- -- -- -- -- -- -- --

Later | Latest

Warning! This data is preliminary and subject to revision.

Download Data Now Download Data Now | Show SCC Map | Plot SCC Data | 1 Month SCC Data | Real-Time SCC Data | SCC Info